sensor_id;sensor_type;location;lat;lon;timestamp;P1;durP1;ratioP1;P2;durP2;ratioP2
14118;SDS011;7138;49.246;9.100;2023-05-15T00:00:15;4.00;;;2.58;;
14118;SDS011;7138;49.246;9.100;2023-05-15T00:02:41;6.03;;;2.67;;
14118;SDS011;7138;49.246;9.100;2023-05-15T00:05:08;6.88;;;2.67;;
14118;SDS011;7138;49.246;9.100;2023-05-15T00:07:35;4.63;;;2.55;;
14118;SDS011;7138;49.246;9.100;2023-05-15T00:10:02;3.67;;;2.28;;
14118;SDS011;7138;49.246;9.100;2023-05-15T00:12:28;3.80;;;2.50;;
14118;SDS011;7138;49.246;9.100;2023-05-15T00:14:54;6.20;;;2.33;;
14118;SDS011;7138;49.246;9.100;2023-05-15T00:17:21;5.03;;;2.58;;
14118;SDS011;7138;49.246;9.100;2023-05-15T00:19:47;3.53;;;2.33;;
14118;SDS011;7138;49.246;9.100;2023-05-15T00:22:13;4.60;;;2.60;;
14118;SDS011;7138;49.246;9.100;2023-05-15T00:24:38;4.60;;;2.60;;
14118;SDS011;7138;49.246;9.100;2023-05-15T00:27:04;4.10;;;2.70;;
14118;SDS011;7138;49.246;9.100;2023-05-15T00:29:30;4.70;;;2.63;;
14118;SDS011;7138;49.246;9.100;2023-05-15T00:31:56;6.20;;;2.60;;
14118;SDS011;7138;49.246;9.100;2023-05-15T00:34:23;4.45;;;2.50;;
14118;SDS011;7138;49.246;9.100;2023-05-15T00:36:49;4.95;;;2.72;;
14118;SDS011;7138;49.246;9.100;2023-05-15T00:39:15;5.60;;;2.53;;
14118;SDS011;7138;49.246;9.100;2023-05-15T00:41:41;6.35;;;2.80;;
14118;SDS011;7138;49.246;9.100;2023-05-15T00:44:10;5.70;;;2.60;;
14118;SDS011;7138;49.246;9.100;2023-05-15T00:46:39;4.35;;;2.75;;
14118;SDS011;7138;49.246;9.100;2023-05-15T00:49:05;4.10;;;2.58;;
14118;SDS011;7138;49.246;9.100;2023-05-15T00:51:38;4.30;;;2.50;;
14118;SDS011;7138;49.246;9.100;2023-05-15T00:54:06;4.03;;;2.47;;
14118;SDS011;7138;49.246;9.100;2023-05-15T00:56:33;3.97;;;2.58;;
14118;SDS011;7138;49.246;9.100;2023-05-15T00:58:59;4.35;;;2.60;;
14118;SDS011;7138;49.246;9.100;2023-05-15T01:01:28;6.47;;;2.80;;
14118;SDS011;7138;49.246;9.100;2023-05-15T01:06:24;4.47;;;2.20;;
14118;SDS011;7138;49.246;9.100;2023-05-15T01:08:53;4.88;;;2.63;;
14118;SDS011;7138;49.246;9.100;2023-05-15T01:11:23;5.13;;;2.72;;
14118;SDS011;7138;49.246;9.100;2023-05-15T01:13:52;4.53;;;2.70;;
14118;SDS011;7138;49.246;9.100;2023-05-15T01:16:19;5.10;;;2.63;;
14118;SDS011;7138;49.246;9.100;2023-05-15T01:18:45;5.65;;;2.80;;
14118;SDS011;7138;49.246;9.100;2023-05-15T01:21:24;4.78;;;3.05;;
14118;SDS011;7138;49.246;9.100;2023-05-15T01:24:27;4.15;;;2.80;;
14118;SDS011;7138;49.246;9.100;2023-05-15T01:27:15;4.72;;;2.85;;
14118;SDS011;7138;49.246;9.100;2023-05-15T01:29:50;4.72;;;2.92;;
14118;SDS011;7138;49.246;9.100;2023-05-15T01:32:29;4.18;;;2.65;;
14118;SDS011;7138;49.246;9.100;2023-05-15T01:35:07;5.47;;;3.35;;
14118;SDS011;7138;49.246;9.100;2023-05-15T01:37:39;5.00;;;2.90;;
14118;SDS011;7138;49.246;9.100;2023-05-15T01:40:13;5.63;;;3.00;;
14118;SDS011;7138;49.246;9.100;2023-05-15T01:42:47;6.57;;;3.17;;
14118;SDS011;7138;49.246;9.100;2023-05-15T01:45:20;5.57;;;3.05;;
14118;SDS011;7138;49.246;9.100;2023-05-15T01:47:48;11.63;;;3.28;;
14118;SDS011;7138;49.246;9.100;2023-05-15T01:50:17;4.78;;;2.72;;
14118;SDS011;7138;49.246;9.100;2023-05-15T01:52:46;5.20;;;2.90;;
14118;SDS011;7138;49.246;9.100;2023-05-15T01:55:16;4.90;;;2.70;;
14118;SDS011;7138;49.246;9.100;2023-05-15T01:57:47;5.10;;;2.97;;
14118;SDS011;7138;49.246;9.100;2023-05-15T02:02:42;4.50;;;2.85;;
14118;SDS011;7138;49.246;9.100;2023-05-15T02:05:10;4.50;;;3.10;;
14118;SDS011;7138;49.246;9.100;2023-05-15T02:07:37;4.47;;;2.95;;
14118;SDS011;7138;49.246;9.100;2023-05-15T02:12:35;4.72;;;2.60;;
14118;SDS011;7138;49.246;9.100;2023-05-15T02:15:05;4.40;;;2.80;;
14118;SDS011;7138;49.246;9.100;2023-05-15T02:17:34;4.13;;;2.72;;
14118;SDS011;7138;49.246;9.100;2023-05-15T02:20:00;4.32;;;2.97;;
14118;SDS011;7138;49.246;9.100;2023-05-15T02:22:26;4.30;;;2.95;;
14118;SDS011;7138;49.246;9.100;2023-05-15T02:24:52;5.85;;;3.05;;
14118;SDS011;7138;49.246;9.100;2023-05-15T02:27:19;4.78;;;3.33;;
14118;SDS011;7138;49.246;9.100;2023-05-15T02:29:51;5.75;;;3.40;;
14118;SDS011;7138;49.246;9.100;2023-05-15T02:32:36;6.03;;;3.33;;
14118;SDS011;7138;49.246;9.100;2023-05-15T02:35:13;6.43;;;3.28;;
14118;SDS011;7138;49.246;9.100;2023-05-15T02:37:51;6.72;;;3.17;;
14118;SDS011;7138;49.246;9.100;2023-05-15T02:40:24;6.63;;;3.33;;
14118;SDS011;7138;49.246;9.100;2023-05-15T02:42:53;5.22;;;3.10;;
14118;SDS011;7138;49.246;9.100;2023-05-15T02:45:21;6.72;;;3.05;;
14118;SDS011;7138;49.246;9.100;2023-05-15T02:47:51;5.78;;;3.50;;
14118;SDS011;7138;49.246;9.100;2023-05-15T02:50:18;6.90;;;2.92;;
14118;SDS011;7138;49.246;9.100;2023-05-15T02:52:44;5.20;;;3.10;;
14118;SDS011;7138;49.246;9.100;2023-05-15T02:55:10;5.80;;;3.50;;
14118;SDS011;7138;49.246;9.100;2023-05-15T02:57:36;5.28;;;3.30;;
14118;SDS011;7138;49.246;9.100;2023-05-15T03:00:02;5.60;;;3.20;;
14118;SDS011;7138;49.246;9.100;2023-05-15T03:02:31;6.10;;;3.40;;
14118;SDS011;7138;49.246;9.100;2023-05-15T03:04:58;5.38;;;3.40;;
14118;SDS011;7138;49.246;9.100;2023-05-15T03:07:24;6.05;;;3.45;;
14118;SDS011;7138;49.246;9.100;2023-05-15T03:09:51;4.65;;;3.35;;
14118;SDS011;7138;49.246;9.100;2023-05-15T03:12:16;7.45;;;3.08;;
14118;SDS011;7138;49.246;9.100;2023-05-15T03:14:42;4.85;;;3.42;;
14118;SDS011;7138;49.246;9.100;2023-05-15T03:17:08;5.65;;;3.03;;
14118;SDS011;7138;49.246;9.100;2023-05-15T03:19:34;5.97;;;3.30;;
14118;SDS011;7138;49.246;9.100;2023-05-15T03:22:01;5.22;;;3.10;;
14118;SDS011;7138;49.246;9.100;2023-05-15T03:24:27;5.82;;;3.25;;
14118;SDS011;7138;49.246;9.100;2023-05-15T03:26:53;6.93;;;3.28;;
14118;SDS011;7138;49.246;9.100;2023-05-15T03:29:19;5.55;;;3.30;;
14118;SDS011;7138;49.246;9.100;2023-05-15T03:31:45;5.65;;;3.35;;
14118;SDS011;7138;49.246;9.100;2023-05-15T03:34:11;5.20;;;3.15;;
14118;SDS011;7138;49.246;9.100;2023-05-15T03:36:36;6.95;;;3.65;;
14118;SDS011;7138;49.246;9.100;2023-05-15T03:39:03;5.55;;;3.45;;
14118;SDS011;7138;49.246;9.100;2023-05-15T03:41:29;9.18;;;3.20;;
14118;SDS011;7138;49.246;9.100;2023-05-15T03:43:55;5.45;;;3.60;;
14118;SDS011;7138;49.246;9.100;2023-05-15T03:46:21;5.85;;;3.63;;
14118;SDS011;7138;49.246;9.100;2023-05-15T03:48:47;5.80;;;3.58;;
14118;SDS011;7138;49.246;9.100;2023-05-15T03:51:13;5.65;;;3.60;;
14118;SDS011;7138;49.246;9.100;2023-05-15T03:53:38;5.60;;;3.13;;
14118;SDS011;7138;49.246;9.100;2023-05-15T03:56:06;5.78;;;3.40;;
14118;SDS011;7138;49.246;9.100;2023-05-15T03:58:32;5.65;;;3.25;;
14118;SDS011;7138;49.246;9.100;2023-05-15T04:00:57;5.80;;;3.30;;
14118;SDS011;7138;49.246;9.100;2023-05-15T04:03:23;4.88;;;3.30;;
14118;SDS011;7138;49.246;9.100;2023-05-15T04:05:49;4.97;;;3.10;;
14118;SDS011;7138;49.246;9.100;2023-05-15T04:08:16;4.63;;;3.20;;
14118;SDS011;7138;49.246;9.100;2023-05-15T04:10:42;5.15;;;3.00;;
14118;SDS011;7138;49.246;9.100;2023-05-15T04:13:09;4.82;;;3.50;;
14118;SDS011;7138;49.246;9.100;2023-05-15T04:15:35;5.97;;;3.20;;
14118;SDS011;7138;49.246;9.100;2023-05-15T04:18:01;7.35;;;3.30;;
14118;SDS011;7138;49.246;9.100;2023-05-15T04:20:27;4.78;;;3.45;;
14118;SDS011;7138;49.246;9.100;2023-05-15T04:22:52;5.95;;;3.10;;
14118;SDS011;7138;49.246;9.100;2023-05-15T04:25:18;6.78;;;4.38;;
14118;SDS011;7138;49.246;9.100;2023-05-15T04:27:45;6.97;;;4.00;;
14118;SDS011;7138;49.246;9.100;2023-05-15T04:30:12;7.03;;;4.95;;
14118;SDS011;7138;49.246;9.100;2023-05-15T04:32:38;8.23;;;5.13;;
14118;SDS011;7138;49.246;9.100;2023-05-15T04:35:05;7.60;;;5.05;;
14118;SDS011;7138;49.246;9.100;2023-05-15T04:37:34;7.15;;;5.00;;
14118;SDS011;7138;49.246;9.100;2023-05-15T04:40:00;6.68;;;4.68;;
14118;SDS011;7138;49.246;9.100;2023-05-15T04:42:26;7.47;;;4.60;;
14118;SDS011;7138;49.246;9.100;2023-05-15T04:44:52;7.63;;;4.47;;
14118;SDS011;7138;49.246;9.100;2023-05-15T04:47:20;6.95;;;4.80;;
14118;SDS011;7138;49.246;9.100;2023-05-15T04:49:45;8.05;;;4.70;;
14118;SDS011;7138;49.246;9.100;2023-05-15T04:52:14;6.68;;;5.00;;
14118;SDS011;7138;49.246;9.100;2023-05-15T04:54:40;9.35;;;4.70;;
14118;SDS011;7138;49.246;9.100;2023-05-15T04:57:06;9.93;;;4.60;;
14118;SDS011;7138;49.246;9.100;2023-05-15T04:59:32;7.60;;;4.15;;
14118;SDS011;7138;49.246;9.100;2023-05-15T05:01:58;5.90;;;3.70;;
14118;SDS011;7138;49.246;9.100;2023-05-15T05:04:25;4.85;;;3.17;;
14118;SDS011;7138;49.246;9.100;2023-05-15T05:06:51;5.28;;;3.58;;
14118;SDS011;7138;49.246;9.100;2023-05-15T05:09:17;4.78;;;3.20;;
14118;SDS011;7138;49.246;9.100;2023-05-15T05:11:47;6.60;;;3.13;;
14118;SDS011;7138;49.246;9.100;2023-05-15T05:14:13;5.50;;;3.47;;
14118;SDS011;7138;49.246;9.100;2023-05-15T05:16:40;5.32;;;3.10;;
14118;SDS011;7138;49.246;9.100;2023-05-15T05:19:08;6.47;;;2.70;;
14118;SDS011;7138;49.246;9.100;2023-05-15T05:21:35;4.65;;;3.20;;
14118;SDS011;7138;49.246;9.100;2023-05-15T05:24:01;6.13;;;3.38;;
14118;SDS011;7138;49.246;9.100;2023-05-15T05:26:27;6.45;;;3.50;;
14118;SDS011;7138;49.246;9.100;2023-05-15T05:28:53;5.75;;;3.83;;
14118;SDS011;7138;49.246;9.100;2023-05-15T05:31:19;5.22;;;3.60;;
14118;SDS011;7138;49.246;9.100;2023-05-15T05:33:45;6.10;;;3.45;;
14118;SDS011;7138;49.246;9.100;2023-05-15T05:36:13;4.50;;;3.50;;
14118;SDS011;7138;49.246;9.100;2023-05-15T05:38:40;6.22;;;3.67;;
14118;SDS011;7138;49.246;9.100;2023-05-15T05:41:06;6.47;;;3.65;;
14118;SDS011;7138;49.246;9.100;2023-05-15T05:43:32;5.35;;;3.92;;
14118;SDS011;7138;49.246;9.100;2023-05-15T05:45:58;5.88;;;3.83;;
14118;SDS011;7138;49.246;9.100;2023-05-15T05:48:24;5.80;;;3.92;;
14118;SDS011;7138;49.246;9.100;2023-05-15T05:50:50;5.93;;;4.03;;
14118;SDS011;7138;49.246;9.100;2023-05-15T05:53:16;5.75;;;4.18;;
14118;SDS011;7138;49.246;9.100;2023-05-15T05:55:43;5.65;;;4.22;;
14118;SDS011;7138;49.246;9.100;2023-05-15T05:58:10;7.13;;;4.43;;
14118;SDS011;7138;49.246;9.100;2023-05-15T06:00:35;6.35;;;4.30;;
14118;SDS011;7138;49.246;9.100;2023-05-15T06:03:01;7.68;;;4.80;;
14118;SDS011;7138;49.246;9.100;2023-05-15T06:05:27;8.75;;;4.82;;
14118;SDS011;7138;49.246;9.100;2023-05-15T06:07:53;6.82;;;4.93;;
14118;SDS011;7138;49.246;9.100;2023-05-15T06:10:20;6.32;;;4.68;;
14118;SDS011;7138;49.246;9.100;2023-05-15T06:12:48;7.57;;;4.93;;
14118;SDS011;7138;49.246;9.100;2023-05-15T06:15:14;9.15;;;5.10;;
14118;SDS011;7138;49.246;9.100;2023-05-15T06:17:40;8.15;;;5.80;;
14118;SDS011;7138;49.246;9.100;2023-05-15T06:20:07;6.75;;;5.05;;
14118;SDS011;7138;49.246;9.100;2023-05-15T06:22:34;7.72;;;5.93;;
14118;SDS011;7138;49.246;9.100;2023-05-15T06:25:00;7.72;;;5.90;;
14118;SDS011;7138;49.246;9.100;2023-05-15T06:27:28;8.15;;;5.45;;
14118;SDS011;7138;49.246;9.100;2023-05-15T06:29:56;7.32;;;4.68;;
14118;SDS011;7138;49.246;9.100;2023-05-15T06:32:22;7.97;;;5.05;;
14118;SDS011;7138;49.246;9.100;2023-05-15T06:34:48;10.25;;;5.35;;
14118;SDS011;7138;49.246;9.100;2023-05-15T06:37:13;8.77;;;4.38;;
14118;SDS011;7138;49.246;9.100;2023-05-15T06:39:39;7.10;;;4.50;;
14118;SDS011;7138;49.246;9.100;2023-05-15T06:42:05;6.28;;;5.05;;
14118;SDS011;7138;49.246;9.100;2023-05-15T06:44:32;8.32;;;5.05;;
14118;SDS011;7138;49.246;9.100;2023-05-15T06:46:59;7.47;;;4.88;;
14118;SDS011;7138;49.246;9.100;2023-05-15T06:49:25;7.65;;;4.85;;
14118;SDS011;7138;49.246;9.100;2023-05-15T06:51:52;6.38;;;4.45;;
14118;SDS011;7138;49.246;9.100;2023-05-15T06:54:18;6.30;;;4.68;;
14118;SDS011;7138;49.246;9.100;2023-05-15T06:56:47;5.93;;;4.70;;
14118;SDS011;7138;49.246;9.100;2023-05-15T06:59:14;8.10;;;4.97;;
14118;SDS011;7138;49.246;9.100;2023-05-15T07:01:40;6.60;;;4.50;;
14118;SDS011;7138;49.246;9.100;2023-05-15T07:04:07;7.82;;;4.47;;
14118;SDS011;7138;49.246;9.100;2023-05-15T07:06:33;6.28;;;3.97;;
14118;SDS011;7138;49.246;9.100;2023-05-15T07:08:59;5.95;;;3.95;;
14118;SDS011;7138;49.246;9.100;2023-05-15T07:11:25;5.38;;;2.90;;
14118;SDS011;7138;49.246;9.100;2023-05-15T07:13:51;5.13;;;3.17;;
14118;SDS011;7138;49.246;9.100;2023-05-15T07:16:17;6.07;;;3.40;;
14118;SDS011;7138;49.246;9.100;2023-05-15T07:18:43;5.03;;;3.13;;
14118;SDS011;7138;49.246;9.100;2023-05-15T07:21:10;5.75;;;3.05;;
14118;SDS011;7138;49.246;9.100;2023-05-15T07:23:37;4.70;;;2.72;;
14118;SDS011;7138;49.246;9.100;2023-05-15T07:26:03;4.57;;;2.70;;
14118;SDS011;7138;49.246;9.100;2023-05-15T07:28:28;4.97;;;2.67;;
14118;SDS011;7138;49.246;9.100;2023-05-15T07:30:54;4.32;;;2.83;;
14118;SDS011;7138;49.246;9.100;2023-05-15T07:33:20;4.97;;;2.78;;
14118;SDS011;7138;49.246;9.100;2023-05-15T07:35:46;4.82;;;2.95;;
14118;SDS011;7138;49.246;9.100;2023-05-15T07:38:13;4.35;;;2.90;;
14118;SDS011;7138;49.246;9.100;2023-05-15T07:40:39;4.60;;;3.03;;
14118;SDS011;7138;49.246;9.100;2023-05-15T07:43:05;5.68;;;2.90;;
14118;SDS011;7138;49.246;9.100;2023-05-15T07:45:30;5.97;;;3.55;;
14118;SDS011;7138;49.246;9.100;2023-05-15T07:47:56;6.18;;;2.85;;
14118;SDS011;7138;49.246;9.100;2023-05-15T07:50:22;4.60;;;2.88;;
14118;SDS011;7138;49.246;9.100;2023-05-15T07:52:49;4.72;;;2.88;;
14118;SDS011;7138;49.246;9.100;2023-05-15T07:55:16;6.43;;;3.25;;
14118;SDS011;7138;49.246;9.100;2023-05-15T07:57:42;4.65;;;2.90;;
14118;SDS011;7138;49.246;9.100;2023-05-15T08:00:09;5.47;;;2.88;;
14118;SDS011;7138;49.246;9.100;2023-05-15T08:02:36;6.15;;;3.47;;
14118;SDS011;7138;49.246;9.100;2023-05-15T08:05:03;6.00;;;3.05;;
14118;SDS011;7138;49.246;9.100;2023-05-15T08:07:30;4.57;;;2.90;;
14118;SDS011;7138;49.246;9.100;2023-05-15T08:09:59;4.22;;;3.00;;
14118;SDS011;7138;49.246;9.100;2023-05-15T08:12:26;5.45;;;3.38;;
14118;SDS011;7138;49.246;9.100;2023-05-15T08:14:53;4.78;;;2.83;;
14118;SDS011;7138;49.246;9.100;2023-05-15T08:17:19;5.10;;;3.35;;
14118;SDS011;7138;49.246;9.100;2023-05-15T08:19:46;3.97;;;2.80;;
14118;SDS011;7138;49.246;9.100;2023-05-15T08:22:13;5.65;;;3.03;;
14118;SDS011;7138;49.246;9.100;2023-05-15T08:24:39;4.38;;;2.83;;
14118;SDS011;7138;49.246;9.100;2023-05-15T08:27:05;4.22;;;2.97;;
14118;SDS011;7138;49.246;9.100;2023-05-15T08:29:34;4.63;;;3.22;;
14118;SDS011;7138;49.246;9.100;2023-05-15T08:32:01;4.50;;;2.83;;
14118;SDS011;7138;49.246;9.100;2023-05-15T08:34:27;8.50;;;3.70;;
14118;SDS011;7138;49.246;9.100;2023-05-15T08:36:54;5.07;;;3.13;;
14118;SDS011;7138;49.246;9.100;2023-05-15T08:39:20;6.07;;;3.20;;
14118;SDS011;7138;49.246;9.100;2023-05-15T08:41:46;4.53;;;2.97;;
14118;SDS011;7138;49.246;9.100;2023-05-15T08:44:20;4.97;;;3.33;;
14118;SDS011;7138;49.246;9.100;2023-05-15T08:46:49;5.80;;;2.85;;
14118;SDS011;7138;49.246;9.100;2023-05-15T08:49:18;4.95;;;3.10;;
14118;SDS011;7138;49.246;9.100;2023-05-15T08:51:54;4.63;;;2.72;;
14118;SDS011;7138;49.246;9.100;2023-05-15T08:54:20;5.35;;;3.20;;
14118;SDS011;7138;49.246;9.100;2023-05-15T08:56:47;4.72;;;3.15;;
14118;SDS011;7138;49.246;9.100;2023-05-15T08:59:13;4.20;;;2.90;;
14118;SDS011;7138;49.246;9.100;2023-05-15T09:01:39;4.82;;;2.60;;
14118;SDS011;7138;49.246;9.100;2023-05-15T09:04:06;4.10;;;2.58;;
14118;SDS011;7138;49.246;9.100;2023-05-15T09:06:32;4.43;;;2.70;;
14118;SDS011;7138;49.246;9.100;2023-05-15T09:09:00;7.13;;;2.95;;
14118;SDS011;7138;49.246;9.100;2023-05-15T09:11:28;4.30;;;2.80;;
14118;SDS011;7138;49.246;9.100;2023-05-15T09:13:56;3.70;;;2.35;;
14118;SDS011;7138;49.246;9.100;2023-05-15T09:16:23;3.90;;;2.60;;
14118;SDS011;7138;49.246;9.100;2023-05-15T09:18:49;4.82;;;2.63;;
14118;SDS011;7138;49.246;9.100;2023-05-15T09:21:25;5.15;;;3.13;;
14118;SDS011;7138;49.246;9.100;2023-05-15T09:26:39;5.43;;;3.75;;
14118;SDS011;7138;49.246;9.100;2023-05-15T09:29:05;4.85;;;3.40;;
14118;SDS011;7138;49.246;9.100;2023-05-15T09:31:31;5.35;;;3.10;;
14118;SDS011;7138;49.246;9.100;2023-05-15T09:33:58;5.35;;;3.35;;
14118;SDS011;7138;49.246;9.100;2023-05-15T09:36:34;4.72;;;3.10;;
14118;SDS011;7138;49.246;9.100;2023-05-15T09:39:07;4.28;;;2.92;;
14118;SDS011;7138;49.246;9.100;2023-05-15T09:41:33;6.60;;;3.00;;
14118;SDS011;7138;49.246;9.100;2023-05-15T09:43:59;7.35;;;3.83;;
14118;SDS011;7138;49.246;9.100;2023-05-15T09:46:25;5.22;;;3.53;;
14118;SDS011;7138;49.246;9.100;2023-05-15T09:48:53;4.13;;;2.92;;
14118;SDS011;7138;49.246;9.100;2023-05-15T09:51:20;3.97;;;2.58;;
14118;SDS011;7138;49.246;9.100;2023-05-15T09:53:48;7.15;;;3.85;;
14118;SDS011;7138;49.246;9.100;2023-05-15T09:56:16;6.05;;;3.15;;
14118;SDS011;7138;49.246;9.100;2023-05-15T09:58:52;4.78;;;3.45;;
14118;SDS011;7138;49.246;9.100;2023-05-15T10:01:18;6.78;;;4.00;;
14118;SDS011;7138;49.246;9.100;2023-05-15T10:03:50;5.88;;;3.20;;
14118;SDS011;7138;49.246;9.100;2023-05-15T10:06:22;4.10;;;2.63;;
14118;SDS011;7138;49.246;9.100;2023-05-15T10:08:51;4.57;;;2.70;;
14118;SDS011;7138;49.246;9.100;2023-05-15T10:11:18;5.47;;;3.38;;
14118;SDS011;7138;49.246;9.100;2023-05-15T10:13:46;4.43;;;3.20;;
14118;SDS011;7138;49.246;9.100;2023-05-15T10:16:12;6.32;;;3.33;;
14118;SDS011;7138;49.246;9.100;2023-05-15T10:18:38;5.25;;;2.67;;
14118;SDS011;7138;49.246;9.100;2023-05-15T10:21:05;5.82;;;2.97;;
14118;SDS011;7138;49.246;9.100;2023-05-15T10:23:33;6.43;;;2.45;;
14118;SDS011;7138;49.246;9.100;2023-05-15T10:26:06;4.20;;;2.60;;
14118;SDS011;7138;49.246;9.100;2023-05-15T10:28:40;4.32;;;2.38;;
14118;SDS011;7138;49.246;9.100;2023-05-15T10:31:09;4.68;;;2.70;;
14118;SDS011;7138;49.246;9.100;2023-05-15T10:33:35;4.63;;;2.65;;
14118;SDS011;7138;49.246;9.100;2023-05-15T10:36:03;4.50;;;2.80;;
14118;SDS011;7138;49.246;9.100;2023-05-15T10:38:31;5.50;;;2.50;;
14118;SDS011;7138;49.246;9.100;2023-05-15T10:40:59;4.95;;;2.45;;
14118;SDS011;7138;49.246;9.100;2023-05-15T10:43:28;4.70;;;2.42;;
14118;SDS011;7138;49.246;9.100;2023-05-15T10:45:54;5.07;;;2.42;;
14118;SDS011;7138;49.246;9.100;2023-05-15T10:48:21;7.60;;;2.83;;
14118;SDS011;7138;49.246;9.100;2023-05-15T10:50:48;5.07;;;2.42;;
14118;SDS011;7138;49.246;9.100;2023-05-15T10:53:15;6.10;;;2.33;;
14118;SDS011;7138;49.246;9.100;2023-05-15T10:55:41;5.43;;;2.55;;
14118;SDS011;7138;49.246;9.100;2023-05-15T10:58:07;5.78;;;2.97;;
14118;SDS011;7138;49.246;9.100;2023-05-15T11:00:41;4.25;;;2.95;;
14118;SDS011;7138;49.246;9.100;2023-05-15T11:03:12;4.35;;;3.17;;
14118;SDS011;7138;49.246;9.100;2023-05-15T11:08:32;5.45;;;2.88;;
14118;SDS011;7138;49.246;9.100;2023-05-15T11:10:58;4.85;;;3.17;;
14118;SDS011;7138;49.246;9.100;2023-05-15T11:13:24;4.97;;;2.83;;
14118;SDS011;7138;49.246;9.100;2023-05-15T11:15:52;4.80;;;2.35;;
14118;SDS011;7138;49.246;9.100;2023-05-15T11:18:18;4.55;;;2.30;;
14118;SDS011;7138;49.246;9.100;2023-05-15T11:23:37;3.97;;;2.50;;
14118;SDS011;7138;49.246;9.100;2023-05-15T11:26:05;4.55;;;2.40;;
14118;SDS011;7138;49.246;9.100;2023-05-15T11:28:34;3.45;;;2.47;;
14118;SDS011;7138;49.246;9.100;2023-05-15T11:31:08;5.68;;;2.67;;
14118;SDS011;7138;49.246;9.100;2023-05-15T11:33:36;4.05;;;2.30;;
14118;SDS011;7138;49.246;9.100;2023-05-15T11:36:04;4.78;;;2.28;;
14118;SDS011;7138;49.246;9.100;2023-05-15T11:38:35;4.25;;;2.10;;
14118;SDS011;7138;49.246;9.100;2023-05-15T11:41:11;6.68;;;2.22;;
14118;SDS011;7138;49.246;9.100;2023-05-15T11:43:43;4.18;;;1.77;;
14118;SDS011;7138;49.246;9.100;2023-05-15T11:46:11;3.95;;;2.08;;
14118;SDS011;7138;49.246;9.100;2023-05-15T11:48:38;4.78;;;2.08;;
14118;SDS011;7138;49.246;9.100;2023-05-15T11:51:10;3.92;;;2.17;;
14118;SDS011;7138;49.246;9.100;2023-05-15T11:53:42;4.13;;;2.30;;
14118;SDS011;7138;49.246;9.100;2023-05-15T11:56:11;4.65;;;2.30;;
14118;SDS011;7138;49.246;9.100;2023-05-15T11:58:41;4.35;;;2.63;;
14118;SDS011;7138;49.246;9.100;2023-05-15T12:01:08;4.32;;;2.45;;
14118;SDS011;7138;49.246;9.100;2023-05-15T12:03:36;3.88;;;2.38;;
14118;SDS011;7138;49.246;9.100;2023-05-15T12:06:02;3.47;;;2.10;;
14118;SDS011;7138;49.246;9.100;2023-05-15T12:08:29;4.78;;;2.13;;
14118;SDS011;7138;49.246;9.100;2023-05-15T12:10:57;2.75;;;1.65;;
14118;SDS011;7138;49.246;9.100;2023-05-15T12:13:24;3.10;;;1.73;;
14118;SDS011;7138;49.246;9.100;2023-05-15T12:15:50;2.90;;;1.50;;
14118;SDS011;7138;49.246;9.100;2023-05-15T12:18:17;3.53;;;1.50;;
14118;SDS011;7138;49.246;9.100;2023-05-15T12:20:43;3.47;;;1.40;;
14118;SDS011;7138;49.246;9.100;2023-05-15T12:23:13;3.88;;;1.50;;
14118;SDS011;7138;49.246;9.100;2023-05-15T12:25:40;3.45;;;1.40;;
14118;SDS011;7138;49.246;9.100;2023-05-15T12:28:10;3.90;;;1.45;;
14118;SDS011;7138;49.246;9.100;2023-05-15T12:30:37;2.85;;;1.40;;
14118;SDS011;7138;49.246;9.100;2023-05-15T12:33:04;3.95;;;1.70;;
14118;SDS011;7138;49.246;9.100;2023-05-15T12:35:34;3.58;;;1.60;;
14118;SDS011;7138;49.246;9.100;2023-05-15T12:38:01;4.40;;;1.75;;
14118;SDS011;7138;49.246;9.100;2023-05-15T12:40:28;5.00;;;1.90;;
14118;SDS011;7138;49.246;9.100;2023-05-15T12:42:57;4.75;;;1.85;;
14118;SDS011;7138;49.246;9.100;2023-05-15T12:45:23;3.35;;;1.58;;
14118;SDS011;7138;49.246;9.100;2023-05-15T12:47:50;3.00;;;1.75;;
14118;SDS011;7138;49.246;9.100;2023-05-15T12:50:16;5.22;;;2.05;;
14118;SDS011;7138;49.246;9.100;2023-05-15T12:52:50;3.60;;;1.70;;
14118;SDS011;7138;49.246;9.100;2023-05-15T12:55:20;5.82;;;2.03;;
14118;SDS011;7138;49.246;9.100;2023-05-15T12:57:49;4.28;;;2.10;;
14118;SDS011;7138;49.246;9.100;2023-05-15T13:00:16;4.85;;;2.00;;
14118;SDS011;7138;49.246;9.100;2023-05-15T13:02:45;3.70;;;1.95;;
14118;SDS011;7138;49.246;9.100;2023-05-15T13:05:13;3.65;;;2.22;;
14118;SDS011;7138;49.246;9.100;2023-05-15T13:07:40;5.15;;;2.17;;
14118;SDS011;7138;49.246;9.100;2023-05-15T13:10:10;5.68;;;2.08;;
14118;SDS011;7138;49.246;9.100;2023-05-15T13:12:37;3.83;;;2.50;;
14118;SDS011;7138;49.246;9.100;2023-05-15T13:15:06;3.70;;;2.40;;
14118;SDS011;7138;49.246;9.100;2023-05-15T13:17:46;6.38;;;2.47;;
14118;SDS011;7138;49.246;9.100;2023-05-15T13:20:12;5.47;;;2.13;;
14118;SDS011;7138;49.246;9.100;2023-05-15T13:22:38;4.00;;;2.00;;
14118;SDS011;7138;49.246;9.100;2023-05-15T13:25:05;5.97;;;2.47;;
14118;SDS011;7138;49.246;9.100;2023-05-15T13:27:34;5.28;;;2.30;;
14118;SDS011;7138;49.246;9.100;2023-05-15T13:30:00;5.00;;;3.05;;
14118;SDS011;7138;49.246;9.100;2023-05-15T13:32:26;4.82;;;3.22;;
14118;SDS011;7138;49.246;9.100;2023-05-15T13:34:52;5.50;;;3.35;;
14118;SDS011;7138;49.246;9.100;2023-05-15T13:37:18;6.35;;;3.08;;
14118;SDS011;7138;49.246;9.100;2023-05-15T13:39:44;4.20;;;2.97;;
14118;SDS011;7138;49.246;9.100;2023-05-15T13:42:10;5.30;;;3.20;;
14118;SDS011;7138;49.246;9.100;2023-05-15T13:44:37;7.07;;;3.20;;
14118;SDS011;7138;49.246;9.100;2023-05-15T13:47:03;6.95;;;2.38;;
14118;SDS011;7138;49.246;9.100;2023-05-15T13:49:30;3.65;;;1.90;;
14118;SDS011;7138;49.246;9.100;2023-05-15T13:51:55;3.80;;;2.28;;
14118;SDS011;7138;49.246;9.100;2023-05-15T13:54:22;4.25;;;2.30;;
14118;SDS011;7138;49.246;9.100;2023-05-15T13:56:47;4.10;;;2.22;;
14118;SDS011;7138;49.246;9.100;2023-05-15T13:59:13;4.90;;;2.25;;
14118;SDS011;7138;49.246;9.100;2023-05-15T14:01:40;4.50;;;2.65;;
14118;SDS011;7138;49.246;9.100;2023-05-15T14:04:07;4.70;;;3.03;;
14118;SDS011;7138;49.246;9.100;2023-05-15T14:06:32;3.95;;;2.60;;
14118;SDS011;7138;49.246;9.100;2023-05-15T14:08:58;5.43;;;3.30;;
14118;SDS011;7138;49.246;9.100;2023-05-15T14:11:24;4.85;;;3.20;;
14118;SDS011;7138;49.246;9.100;2023-05-15T14:13:50;5.88;;;3.20;;
14118;SDS011;7138;49.246;9.100;2023-05-15T14:16:16;4.55;;;3.03;;
14118;SDS011;7138;49.246;9.100;2023-05-15T14:18:43;6.60;;;2.90;;
14118;SDS011;7138;49.246;9.100;2023-05-15T14:21:09;5.90;;;2.83;;
14118;SDS011;7138;49.246;9.100;2023-05-15T14:23:35;3.80;;;2.25;;
14118;SDS011;7138;49.246;9.100;2023-05-15T14:26:01;3.88;;;2.33;;
14118;SDS011;7138;49.246;9.100;2023-05-15T14:28:27;5.10;;;2.80;;
14118;SDS011;7138;49.246;9.100;2023-05-15T14:30:53;4.22;;;2.40;;
14118;SDS011;7138;49.246;9.100;2023-05-15T14:33:19;4.13;;;2.08;;
14118;SDS011;7138;49.246;9.100;2023-05-15T14:35:46;3.35;;;2.10;;
14118;SDS011;7138;49.246;9.100;2023-05-15T14:38:12;4.78;;;2.20;;
14118;SDS011;7138;49.246;9.100;2023-05-15T14:40:38;3.20;;;1.70;;
14118;SDS011;7138;49.246;9.100;2023-05-15T14:43:04;3.35;;;1.85;;
14118;SDS011;7138;49.246;9.100;2023-05-15T14:45:30;4.15;;;1.60;;
14118;SDS011;7138;49.246;9.100;2023-05-15T14:47:56;3.72;;;1.70;;
14118;SDS011;7138;49.246;9.100;2023-05-15T14:50:21;4.18;;;1.65;;
14118;SDS011;7138;49.246;9.100;2023-05-15T14:52:49;3.00;;;1.67;;
14118;SDS011;7138;49.246;9.100;2023-05-15T14:55:15;2.92;;;1.40;;
14118;SDS011;7138;49.246;9.100;2023-05-15T14:57:45;3.95;;;1.70;;
14118;SDS011;7138;49.246;9.100;2023-05-15T15:00:13;3.25;;;1.70;;
14118;SDS011;7138;49.246;9.100;2023-05-15T15:02:40;4.35;;;1.60;;
14118;SDS011;7138;49.246;9.100;2023-05-15T15:05:07;3.15;;;1.85;;
14118;SDS011;7138;49.246;9.100;2023-05-15T15:10:27;4.97;;;3.00;;
14118;SDS011;7138;49.246;9.100;2023-05-15T15:12:54;5.70;;;3.60;;
14118;SDS011;7138;49.246;9.100;2023-05-15T15:15:20;6.53;;;3.58;;
14118;SDS011;7138;49.246;9.100;2023-05-15T15:17:47;6.50;;;3.95;;
14118;SDS011;7138;49.246;9.100;2023-05-15T15:20:13;7.53;;;3.97;;